Time,TemperatureF,DewpointF,PressureIn,WindDirection,WindDirectionDegrees,WindSpeedMPH,WindSpeedGustMPH,Humidity,HourlyPrecipIn,Conditions,Clouds,dailyrainin,SoftwareType,DateUTC
2013-09-28 00:13:00,54.6,40.0,30.02,SW,216,0.0,1.0,59,0.00,,,0.00,weatherlink.com 1.10,2013-09-28 07:13:00,
2013-09-28 00:28:00,55.3,41.0,30.03,SW,216,0.0,1.0,59,0.00,,,0.00,weatherlink.com 1.10,2013-09-28 07:28:00,
2013-09-28 00:43:00,54.3,42.0,30.03,SW,216,0.0,1.0,64,0.00,,,0.00,weatherlink.com 1.10,2013-09-28 07:43:00,
2013-09-28 00:58:00,53.8,44.0,30.03,SW,216,1.0,2.0,70,0.00,,,0.00,weatherlink.com 1.10,2013-09-28 07:58:00,
2013-09-28 01:13:00,54.5,44.0,30.03,East,97,1.0,6.0,68,0.00,,,0.00,weatherlink.com 1.10,2013-09-28 08:13:00,
2013-09-28 01:28:00,55.0,44.0,30.04,East,97,0.0,6.0,67,0.00,,,0.00,weatherlink.com 1.10,2013-09-28 08:28:00,
2013-09-28 01:43:00,55.0,44.0,30.04,East,92,1.0,4.0,66,0.00,,,0.00,weatherlink.com 1.10,2013-09-28 08:43:00,
2013-09-28 01:58:00,55.1,43.0,30.04,East,97,1.0,5.0,64,0.00,,,0.00,weatherlink.com 1.10,2013-09-28 08:58:00,
2013-09-28 02:13:00,55.3,43.0,30.04,East,86,2.0,3.0,63,0.00,,,0.00,weatherlink.com 1.10,2013-09-28 09:13:00,
2013-09-28 02:28:00,55.1,43.0,30.04,East,87,2.0,3.0,64,0.00,,,0.00,weatherlink.com 1.10,2013-09-28 09:28:00,
2013-09-28 02:43:00,55.0,43.0,30.04,East,98,0.0,2.0,65,0.00,,,0.00,weatherlink.com 1.10,2013-09-28 09:43:00,
2013-09-28 02:58:00,54.1,43.0,30.03,East,97,3.0,3.0,67,0.00,,,0.00,weatherlink.com 1.10,2013-09-28 09:58:00,
2013-09-28 03:13:00,54.5,44.0,30.03,East,82,2.0,3.0,67,0.00,,,0.00,weatherlink.com 1.10,2013-09-28 10:13:00,
2013-09-28 03:28:00,54.7,44.0,30.03,ESE,107,1.0,3.0,67,0.00,,,0.00,weatherlink.com 1.10,2013-09-28 10:28:00,
2013-09-28 03:43:00,54.7,44.0,30.03,ESE,108,0.0,3.0,67,0.00,,,0.00,weatherlink.com 1.10,2013-09-28 10:43:00,
2013-09-28 03:58:00,54.3,44.0,30.03,ESE,105,0.0,3.0,68,0.00,,,0.00,weatherlink.com 1.10,2013-09-28 10:58:00,
2013-09-28 04:13:00,54.0,43.0,30.02,East,88,2.0,3.0,67,0.00,,,0.00,weatherlink.com 1.10,2013-09-28 11:13:00,
2013-09-28 04:28:00,54.2,43.0,30.02,East,92,0.0,3.0,67,0.00,,,0.00,weatherlink.com 1.10,2013-09-28 11:28:00,
2013-09-28 04:44:00,53.7,43.0,30.03,East,90,1.0,2.0,67,0.00,,,0.00,weatherlink.com 1.10,2013-09-28 11:44:00,
2013-09-28 04:59:00,53.2,43.0,30.03,East,90,0.0,1.0,69,0.00,,,0.00,weatherlink.com 1.10,2013-09-28 11:59:00,
2013-09-28 05:14:00,50.4,42.0,30.03,East,90,1.0,1.0,72,0.00,,,0.00,weatherlink.com 1.10,2013-09-28 12:14:00,
2013-09-28 05:29:00,48.7,42.0,30.03,East,90,0.0,0.0,79,0.00,,,0.00,weatherlink.com 1.10,2013-09-28 12:29:00,
2013-09-28 05:44:00,48.8,43.0,30.03,East,90,0.0,0.0,81,0.00,,,0.00,weatherlink.com 1.10,2013-09-28 12:44:00,
2013-09-28 05:59:00,47.3,41.0,30.04,East,90,0.0,0.0,79,0.00,,,0.00,weatherlink.com 1.10,2013-09-28 12:59:00,
2013-09-28 06:14:00,47.2,43.0,30.04,East,90,0.0,0.0,85,0.00,,,0.00,weatherlink.com 1.10,2013-09-28 13:14:00,
2013-09-28 06:29:00,47.4,43.0,30.04,East,90,0.0,0.0,85,0.00,,,0.00,weatherlink.com 1.10,2013-09-28 13:29:00,
2013-09-28 06:44:00,47.1,43.0,30.05,East,90,0.0,0.0,84,0.00,,,0.00,weatherlink.com 1.10,2013-09-28 13:44:00,
2013-09-28 06:59:00,46.7,43.0,30.05,East,90,0.0,0.0,88,0.00,,,0.00,weatherlink.com 1.10,2013-09-28 13:59:00,
2013-09-28 07:14:00,46.3,42.0,30.06,East,90,0.0,0.0,84,0.00,,,0.00,weatherlink.com 1.10,2013-09-28 14:14:00,
2013-09-28 07:29:00,46.0,42.0,30.06,East,90,0.0,0.0,86,0.00,,,0.00,weatherlink.com 1.10,2013-09-28 14:29:00,
2013-09-28 07:44:00,46.8,44.0,30.07,East,90,0.0,0.0,88,0.00,,,0.00,weatherlink.com 1.10,2013-09-28 14:44:00,
2013-09-28 07:59:00,48.6,45.0,30.07,East,90,0.0,0.0,86,0.00,,,0.00,weatherlink.com 1.10,2013-09-28 14:59:00,
2013-09-28 08:14:00,51.7,46.0,30.07,East,90,0.0,0.0,82,0.00,,,0.00,weatherlink.com 1.10,2013-09-28 15:14:00,
2013-09-28 08:29:00,56.7,47.0,30.07,East,91,0.0,2.0,70,0.00,,,0.00,weatherlink.com 1.10,2013-09-28 15:29:00,
2013-09-28 08:44:00,60.1,46.0,30.07,SE,146,2.0,3.0,59,0.00,,,0.00,weatherlink.com 1.10,2013-09-28 15:44:00,
2013-09-28 08:59:00,61.5,45.0,30.07,SSE,153,0.0,4.0,55,0.00,,,0.00,weatherlink.com 1.10,2013-09-28 15:59:00,
2013-09-28 09:14:00,63.2,44.0,30.08,SE,136,3.0,4.0,50,0.00,,,0.00,weatherlink.com 1.10,2013-09-28 16:14:00,
2013-09-28 09:30:00,64.5,44.0,30.08,SE,129,1.0,5.0,47,0.00,,,0.00,weatherlink.com 1.10,2013-09-28 16:30:00,
2013-09-28 09:45:00,65.7,43.0,30.08,South,191,1.0,4.0,44,0.00,,,0.00,weatherlink.com 1.10,2013-09-28 16:45:00,
2013-09-28 10:00:00,67.0,45.0,30.08,South,172,1.0,4.0,45,0.00,,,0.00,weatherlink.com 1.10,2013-09-28 17:00:00,
2013-09-28 10:15:00,68.5,44.0,30.08,SSE,165,3.0,5.0,42,0.00,,,0.00,weatherlink.com 1.10,2013-09-28 17:15:00,
2013-09-28 10:30:00,70.2,45.0,30.09,ESE,122,2.0,4.0,40,0.00,,,0.00,weatherlink.com 1.10,2013-09-28 17:30:00,
2013-09-28 10:45:00,71.3,44.0,30.09,SSW,194,0.0,4.0,37,0.00,,,0.00,weatherlink.com 1.10,2013-09-28 17:45:00,
2013-09-28 11:00:00,72.4,45.0,30.09,South,190,1.0,3.0,37,0.00,,,0.00,weatherlink.com 1.10,2013-09-28 18:00:00,
2013-09-28 11:15:00,73.0,44.0,30.08,East,94,1.0,5.0,35,0.00,,,0.00,weatherlink.com 1.10,2013-09-28 18:15:00,
2013-09-28 11:30:00,74.1,43.0,30.08,ESE,109,2.0,5.0,33,0.00,,,0.00,weatherlink.com 1.10,2013-09-28 18:30:00,
2013-09-28 11:45:00,74.9,44.0,30.08,ESE,119,0.0,4.0,33,0.00,,,0.00,weatherlink.com 1.10,2013-09-28 18:45:00,
2013-09-28 12:00:00,75.7,45.0,30.07,South,178,2.0,6.0,34,0.00,,,0.00,weatherlink.com 1.10,2013-09-28 19:00:00,
2013-09-28 12:15:00,76.7,43.0,30.07,SE,143,2.0,5.0,30,0.00,,,0.00,weatherlink.com 1.10,2013-09-28 19:15:00,
2013-09-28 12:30:00,78.4,44.0,30.06,ESE,111,4.0,5.0,29,0.00,,,0.00,weatherlink.com 1.10,2013-09-28 19:30:00,
2013-09-28 12:45:00,78.6,43.0,30.05,SSW,203,0.0,7.0,28,0.00,,,0.00,weatherlink.com 1.10,2013-09-28 19:45:00,
2013-09-28 13:01:00,79.2,41.0,30.05,SW,217,4.0,7.0,26,0.00,,,0.00,weatherlink.com 1.10,2013-09-28 20:01:00,
2013-09-28 13:16:00,79.1,42.0,30.04,SSE,167,3.0,7.0,27,0.00,,,0.00,weatherlink.com 1.10,2013-09-28 20:16:00,
2013-09-28 13:31:00,79.6,41.0,30.03,South,182,3.0,7.0,25,0.00,,,0.00,weatherlink.com 1.10,2013-09-28 20:31:00,
2013-09-28 13:46:00,79.1,42.0,30.03,SW,222,3.0,6.0,27,0.00,,,0.00,weatherlink.com 1.10,2013-09-28 20:46:00,
2013-09-28 14:01:00,79.5,43.0,30.02,South,172,1.0,7.0,27,0.00,,,0.00,weatherlink.com 1.10,2013-09-28 21:01:00,
2013-09-28 14:16:00,80.4,41.0,30.02,SSE,164,3.0,7.0,25,0.00,,,0.00,weatherlink.com 1.10,2013-09-28 21:16:00,
2013-09-28 14:31:00,81.4,42.0,30.01,WSW,240,2.0,7.0,25,0.00,,,0.00,weatherlink.com 1.10,2013-09-28 21:31:00,
2013-09-28 14:46:00,81.9,42.0,30.00,South,186,3.0,6.0,24,0.00,,,0.00,weatherlink.com 1.10,2013-09-28 21:46:00,
2013-09-28 15:01:00,82.7,42.0,30.00,SSW,205,5.0,8.0,24,0.00,,,0.00,weatherlink.com 1.10,2013-09-28 22:01:00,
2013-09-28 15:16:00,82.7,42.0,29.99,South,176,4.0,7.0,24,0.00,,,0.00,weatherlink.com 1.10,2013-09-28 22:16:00,
2013-09-28 15:31:00,82.9,43.0,29.99,South,190,3.0,7.0,24,0.00,,,0.00,weatherlink.com 1.10,2013-09-28 22:31:00,
2013-09-28 15:46:00,83.2,42.0,29.98,SSE,162,3.0,8.0,23,0.00,,,0.00,weatherlink.com 1.10,2013-09-28 22:46:00,
2013-09-28 16:01:00,83.8,42.0,29.98,South,178,5.0,9.0,23,0.00,,,0.00,weatherlink.com 1.10,2013-09-28 23:01:00,
2013-09-28 16:16:00,83.8,42.0,29.97,South,180,0.0,6.0,23,0.00,,,0.00,weatherlink.com 1.10,2013-09-28 23:16:00,
2013-09-28 16:31:00,83.7,41.0,29.97,SSW,202,6.0,7.0,22,0.00,,,0.00,weatherlink.com 1.10,2013-09-28 23:31:00,
2013-09-28 16:46:00,83.6,40.0,29.97,SSW,199,6.0,8.0,21,0.00,,,0.00,weatherlink.com 1.10,2013-09-28 23:46:00,
2013-09-28 17:01:00,83.4,41.0,29.96,West,261,2.0,6.0,22,0.00,,,0.00,weatherlink.com 1.10,2013-09-29 00:01:00,
2013-09-28 17:16:00,83.6,42.0,29.96,SW,231,1.0,5.0,23,0.00,,,0.00,weatherlink.com 1.10,2013-09-29 00:16:00,
2013-09-28 17:31:00,83.2,41.0,29.95,SW,225,1.0,6.0,22,0.00,,,0.00,weatherlink.com 1.10,2013-09-29 00:31:00,
2013-09-28 17:46:00,83.0,39.0,29.96,South,186,1.0,5.0,21,0.00,,,0.00,weatherlink.com 1.10,2013-09-29 00:46:00,
2013-09-28 18:01:00,82.0,41.0,29.96,South,169,2.0,4.0,23,0.00,,,0.00,weatherlink.com 1.10,2013-09-29 01:01:00,
2013-09-28 18:16:00,80.9,42.0,29.96,SSW,192,1.0,4.0,25,0.00,,,0.00,weatherlink.com 1.10,2013-09-29 01:16:00,
2013-09-28 18:31:00,78.8,45.0,29.95,SSW,192,1.0,2.0,30,0.00,,,0.00,weatherlink.com 1.10,2013-09-29 01:31:00,
2013-09-28 18:46:00,75.8,44.0,29.95,South,190,3.0,3.0,32,0.00,,,0.00,weatherlink.com 1.10,2013-09-29 01:46:00,
2013-09-28 19:01:00,75.2,42.0,29.96,SW,215,4.0,6.0,31,0.00,,,0.00,weatherlink.com 1.10,2013-09-29 02:01:00,
2013-09-28 19:16:00,74.4,43.0,29.96,SW,229,3.0,9.0,33,0.00,,,0.00,weatherlink.com 1.10,2013-09-29 02:16:00,
2013-09-28 19:31:00,72.6,42.0,29.97,SW,223,3.0,7.0,33,0.00,,,0.00,weatherlink.com 1.10,2013-09-29 02:31:00,
2013-09-28 19:46:00,71.4,43.0,29.97,SW,215,5.0,10.0,36,0.00,,,0.00,weatherlink.com 1.10,2013-09-29 02:46:00,
2013-09-28 20:01:00,71.4,44.0,29.98,SSW,198,5.0,9.0,38,0.00,,,0.00,weatherlink.com 1.10,2013-09-29 03:01:00,
2013-09-28 20:16:00,70.8,45.0,29.99,SSW,195,5.0,9.0,40,0.00,,,0.00,weatherlink.com 1.10,2013-09-29 03:16:00,
2013-09-28 20:31:00,70.2,45.0,29.99,South,188,4.0,8.0,41,0.00,,,0.00,weatherlink.com 1.10,2013-09-29 03:31:00,
2013-09-28 20:46:00,69.6,46.0,29.99,SSE,161,3.0,9.0,43,0.00,,,0.00,weatherlink.com 1.10,2013-09-29 03:46:00,
2013-09-28 21:01:00,68.7,46.0,30.00,SSW,205,5.0,10.0,44,0.00,,,0.00,weatherlink.com 1.10,2013-09-29 04:01:00,
2013-09-28 21:16:00,67.9,48.0,30.01,SSW,204,7.0,10.0,49,0.00,,,0.00,weatherlink.com 1.10,2013-09-29 04:16:00,
2013-09-28 21:31:00,66.8,50.0,30.01,SSW,192,3.0,11.0,55,0.00,,,0.00,weatherlink.com 1.10,2013-09-29 04:31:00,
2013-09-28 21:46:00,66.1,51.0,30.01,SSE,152,7.0,11.0,59,0.00,,,0.00,weatherlink.com 1.10,2013-09-29 04:46:00,
2013-09-28 22:01:00,65.4,52.0,30.01,SSW,192,7.0,9.0,62,0.00,,,0.00,weatherlink.com 1.10,2013-09-29 05:01:00,
2013-09-28 22:16:00,64.7,53.0,30.01,SSE,168,6.0,10.0,65,0.00,,,0.00,weatherlink.com 1.10,2013-09-29 05:16:00,
2013-09-28 22:31:00,64.3,53.0,30.00,South,175,5.0,11.0,66,0.00,,,0.00,weatherlink.com 1.10,2013-09-29 05:31:00,
2013-09-28 22:46:00,64.2,53.0,30.01,South,171,5.0,7.0,66,0.00,,,0.00,weatherlink.com 1.10,2013-09-29 05:46:00,
2013-09-28 23:01:00,64.0,53.0,30.01,SSW,200,7.0,8.0,67,0.00,,,0.00,weatherlink.com 1.10,2013-09-29 06:01:00,
2013-09-28 23:16:00,64.0,53.0,30.01,South,186,4.0,10.0,68,0.00,,,0.00,weatherlink.com 1.10,2013-09-29 06:16:00,
2013-09-28 23:31:00,64.0,54.0,30.01,SSW,202,4.0,10.0,69,0.00,,,0.00,weatherlink.com 1.10,2013-09-29 06:31:00,
2013-09-28 23:46:00,63.3,55.0,30.01,South,190,5.0,10.0,73,0.00,,,0.00,weatherlink.com 1.10,2013-09-29 06:46:00,